Time;durP1;ratioP1;P1;durP2;ratioP2;P2;SDS_P1;SDS_P2;PMS_P1;PMS_P2;Temp;Humidity;BMP_temperature;BMP_pressure;BME280_temperature;BME280_humidity;BME280_pressure;Samples;Min_cycle;Max_cycle;Signal;HPM_P1;HPM_P2
2024/04/21 00:02:16;;;;;;;17.85;2.70;;;4.10;99.90;;;;;;5331110;26;20208;-80
2024/04/21 00:05:03;;;;;;;14.13;2.78;;;4.10;99.90;;;;;;5308985;26;19997;-80
2024/04/21 00:07:29;;;;;;;10.13;2.50;;;4.10;99.90;;;;;;5329923;26;20009;-80
2024/04/21 00:09:55;;;;;;;7.70;1.80;;;4.10;99.90;;;;;;5333106;26;20095;-80
2024/04/21 00:12:20;;;;;;;14.73;2.80;;;4.10;99.90;;;;;;5325430;26;20013;-80
2024/04/21 00:14:46;;;;;;;13.48;2.70;;;4.20;99.90;;;;;;5326779;26;20017;-80
2024/04/21 00:17:14;;;;;;;12.43;2.60;;;4.20;99.90;;;;;;5329047;26;20009;-80
2024/04/21 00:19:40;;;;;;;18.27;3.70;;;4.20;99.90;;;;;;5336854;26;20001;-81
2024/04/21 00:22:06;;;;;;;13.18;2.95;;;4.30;99.90;;;;;;5334276;26;20355;-80
2024/04/21 00:24:33;;;;;;;18.23;3.00;;;4.30;99.90;;;;;;5304976;26;20343;-80
2024/04/21 00:27:00;;;;;;;15.63;3.38;;;4.30;99.90;;;;;;5331161;26;20000;-81
2024/04/21 00:29:26;;;;;;;12.32;2.75;;;4.30;99.90;;;;;;5335708;26;20098;-81
2024/04/21 00:31:51;;;;;;;10.90;2.67;;;4.30;99.90;;;;;;5333707;26;20012;-80
2024/04/21 00:34:18;;;;;;;15.60;2.90;;;4.40;99.90;;;;;;5337618;26;20526;-81
2024/04/21 00:36:44;;;;;;;15.05;2.55;;;4.20;99.90;;;;;;5328942;26;20009;-83
2024/04/21 00:39:10;;;;;;;15.32;2.85;;;4.40;99.90;;;;;;5364589;26;20103;-82
2024/04/21 00:41:36;;;;;;;18.40;3.58;;;4.40;99.90;;;;;;5322626;26;20500;-82
2024/04/21 00:44:02;;;;;;;14.93;3.40;;;4.30;99.90;;;;;;5333036;26;20009;-82
2024/04/21 00:46:28;;;;;;;12.90;2.65;;;4.30;99.90;;;;;;5331192;26;20020;-82
2024/04/21 00:48:55;;;;;;;17.08;3.53;;;4.30;99.90;;;;;;5337656;26;20008;-82
2024/04/21 00:51:22;;;;;;;14.55;3.05;;;4.20;99.90;;;;;;5333939;26;20016;-82
2024/04/21 00:53:50;;;;;;;17.67;3.40;;;4.20;99.90;;;;;;5308069;26;20036;-83
2024/04/21 00:56:19;;;;;;;16.52;2.58;;;4.20;99.90;;;;;;5331516;26;21001;-83
2024/04/21 00:58:45;;;;;;;15.85;2.72;;;4.10;99.90;;;;;;5332178;26;20015;-83
2024/04/21 01:01:12;;;;;;;13.43;3.30;;;4.10;99.90;;;;;;5324883;26;20439;-83
2024/04/21 01:03:38;;;;;;;13.50;2.67;;;4.00;99.90;;;;;;5323589;26;20001;-83
2024/04/21 01:06:04;;;;;;;20.83;3.85;;;3.90;99.90;;;;;;5362937;26;20013;-83
2024/04/21 01:08:30;;;;;;;14.15;2.70;;;3.80;99.90;;;;;;5329919;26;20001;-83
2024/04/21 01:10:56;;;;;;;13.80;2.88;;;3.70;99.90;;;;;;5334127;26;20017;-83
2024/04/21 01:13:22;;;;;;;12.27;2.45;;;3.70;99.90;;;;;;5332622;26;20059;-83
2024/04/21 01:15:54;;;;;;;11.57;2.00;;;3.70;99.90;;;;;;5334420;26;20009;-84
2024/04/21 01:18:19;;;;;;;8.73;2.13;;;3.60;99.90;;;;;;5387512;26;20010;-83
2024/04/21 01:20:46;;;;;;;5.03;1.38;;;3.50;99.90;;;;;;5334801;26;20467;-83
2024/04/21 01:23:18;;;;;;;5.60;1.05;;;3.50;99.90;;;;;;5332700;26;20000;-84
2024/04/21 01:25:46;;;;;;;6.30;0.93;;;3.60;99.90;;;;;;5333521;26;20001;-83
2024/04/21 01:28:12;;;;;;;6.38;0.80;;;3.40;99.90;;;;;;5357159;26;20340;-83
2024/04/21 01:30:38;;;;;;;2.88;0.90;;;3.60;99.90;;;;;;5334394;26;20005;-83
2024/04/21 01:33:24;;;;;;;3.80;0.80;;;3.40;99.90;;;;;;5329077;26;20049;-83
2024/04/21 01:35:50;;;;;;;3.33;0.50;;;3.40;99.90;;;;;;5334836;26;20000;-83
2024/04/21 01:38:16;;;;;;;5.18;0.90;;;3.50;99.90;;;;;;5331675;26;20467;-83
2024/04/21 01:40:42;;;;;;;4.05;0.50;;;3.50;99.90;;;;;;5329835;26;20004;-83
2024/04/21 01:43:08;;;;;;;3.28;0.77;;;3.50;99.90;;;;;;5333064;26;20087;-83
2024/04/21 01:45:34;;;;;;;3.17;0.68;;;3.70;99.90;;;;;;5320148;26;20450;-82
2024/04/21 01:48:00;;;;;;;3.42;0.77;;;3.50;99.90;;;;;;5330285;26;20406;-83
2024/04/21 01:50:26;;;;;;;3.38;0.70;;;3.50;99.90;;;;;;5363764;26;20009;-83
2024/04/21 01:52:52;;;;;;;4.22;0.73;;;3.60;99.90;;;;;;5335002;26;20422;-83
2024/04/21 01:55:18;;;;;;;2.13;0.55;;;3.60;99.90;;;;;;5329316;26;20447;-83
2024/04/21 01:57:45;;;;;;;2.05;0.70;;;3.60;99.90;;;;;;5334827;26;20020;-82
2024/04/21 02:00:11;;;;;;;3.30;0.65;;;3.60;99.90;;;;;;5333461;26;20008;-82
2024/04/21 02:02:37;;;;;;;4.93;0.80;;;3.70;99.90;;;;;;5332291;26;20001;-82
2024/04/21 02:05:07;;;;;;;4.95;1.10;;;3.70;99.90;;;;;;5339649;26;20008;-82
2024/04/21 02:07:34;;;;;;;4.78;0.98;;;3.80;99.90;;;;;;5390328;26;20048;-81
2024/04/21 02:10:00;;;;;;;3.05;1.00;;;3.70;99.90;;;;;;5330916;26;20009;-81
2024/04/21 02:12:26;;;;;;;3.10;0.80;;;3.80;99.90;;;;;;5351423;26;20047;-82
2024/04/21 02:14:52;;;;;;;9.30;1.25;;;3.80;99.90;;;;;;5329230;26;20005;-82
2024/04/21 02:17:20;;;;;;;2.47;0.95;;;3.80;99.90;;;;;;5335597;26;20005;-81
2024/04/21 02:19:46;;;;;;;2.65;1.00;;;3.80;99.90;;;;;;5330583;26;20009;-82
2024/04/21 02:22:12;;;;;;;6.53;1.55;;;3.80;99.90;;;;;;5336099;26;20478;-82
2024/04/21 02:24:43;;;;;;;4.57;1.13;;;4.00;99.90;;;;;;5333078;26;20328;-83
2024/04/21 02:27:10;;;;;;;4.38;1.40;;;3.90;99.90;;;;;;5330638;26;20005;-82
2024/04/21 02:29:36;;;;;;;4.55;1.27;;;3.90;99.90;;;;;;5327317;26;20460;-82
2024/04/21 02:32:02;;;;;;;4.03;1.10;;;3.80;99.90;;;;;;5331907;26;20005;-85
2024/04/21 02:34:28;;;;;;;2.72;0.80;;;3.90;99.90;;;;;;5329713;26;20495;-84
2024/04/21 02:36:54;;;;;;;4.00;0.90;;;3.90;99.90;;;;;;5333396;26;20023;-84
2024/04/21 02:39:20;;;;;;;5.82;1.10;;;3.80;99.90;;;;;;5331875;26;20001;-83
2024/04/21 02:41:46;;;;;;;5.75;1.35;;;3.70;99.90;;;;;;5328869;26;20074;-85
2024/04/21 02:44:12;;;;;;;5.03;1.25;;;3.70;99.90;;;;;;5335101;26;20445;-84
2024/04/21 02:46:38;;;;;;;2.90;1.00;;;3.60;99.90;;;;;;5333047;26;20221;-83
2024/04/21 02:49:04;;;;;;;5.95;1.65;;;3.50;99.90;;;;;;5332115;26;20341;-83
2024/04/21 02:51:29;;;;;;;4.70;1.17;;;3.50;99.90;;;;;;5329441;26;20735;-83
2024/04/21 02:53:56;;;;;;;3.65;1.20;;;3.40;99.90;;;;;;5335047;26;20009;-84
2024/04/21 02:56:31;;;;;;;5.43;1.40;;;3.40;99.90;;;;;;5333765;26;20300;-83
2024/04/21 02:58:57;;;;;;;7.70;1.77;;;3.40;99.90;;;;;;5329310;26;20104;-84
2024/04/21 03:01:45;;;;;;;7.97;1.80;;;3.50;99.90;;;;;;5354920;26;20005;-84
2024/04/21 03:04:11;;;;;;;5.68;1.60;;;3.30;99.90;;;;;;5334909;26;20479;-84
2024/04/21 03:06:37;;;;;;;7.35;1.75;;;3.50;99.90;;;;;;5332488;26;20009;-84
2024/04/21 03:09:03;;;;;;;9.95;2.50;;;3.30;99.90;;;;;;5328801;26;20460;-83
2024/04/21 03:11:32;;;;;;;7.43;1.90;;;3.40;99.90;;;;;;5331893;26;23051;-83
2024/04/21 03:13:58;;;;;;;12.48;2.67;;;3.40;99.90;;;;;;5332402;26;20020;-84
2024/04/21 03:16:46;;;;;;;10.02;2.35;;;3.30;99.90;;;;;;5333086;26;20015;-83
2024/04/21 03:19:32;;;;;;;10.15;2.83;;;3.30;99.90;;;;;;5305077;26;20023;-83
2024/04/21 03:22:18;;;;;;;8.63;2.38;;;3.20;99.90;;;;;;5332292;26;20025;-83
2024/04/21 03:25:05;;;;;;;13.07;2.70;;;3.20;99.90;;;;;;5359866;26;20309;-82
2024/04/21 03:27:52;;;;;;;12.43;2.60;;;3.20;99.90;;;;;;5306104;26;20015;-83
2024/04/21 03:30:57;;;;;;;12.52;2.58;;;3.20;99.90;;;;;;5308073;26;20166;-83
2024/04/21 03:33:56;;;;;;;10.20;2.25;;;3.20;99.90;;;;;;5334333;26;20005;-84
2024/04/21 03:37:04;;;;;;;7.13;2.17;;;3.20;99.90;;;;;;5310155;26;20412;-83
2024/04/21 03:39:53;;;;;;;6.15;1.90;;;3.20;99.90;;;;;;5359680;26;20037;-83
2024/04/21 03:42:38;;;;;;;6.70;2.30;;;3.10;99.90;;;;;;5384078;26;20005;-84
2024/04/21 03:45:24;;;;;;;5.78;2.10;;;3.10;99.90;;;;;;5307873;26;20088;-83
2024/04/21 03:48:10;;;;;;;5.20;1.65;;;3.20;99.90;;;;;;5354302;26;20023;-83
2024/04/21 03:50:56;;;;;;;5.13;2.08;;;3.00;99.90;;;;;;5309812;26;20015;-83
2024/04/21 03:57:29;;;;;;;7.32;1.88;;;2.90;99.90;;;;;;5155005;27;20017;-83
2024/04/21 04:00:15;;;;;;;6.63;1.80;;;2.80;99.90;;;;;;5155998;27;20017;-82
2024/04/21 04:03:01;;;;;;;4.55;1.58;;;2.70;99.90;;;;;;5238687;27;20006;-83
2024/04/21 04:05:53;;;;;;;4.70;1.90;;;2.60;99.90;;;;;;5291537;26;20056;-83
2024/04/21 04:08:39;;;;;;;3.97;1.67;;;2.60;99.90;;;;;;5338824;26;20082;-83
2024/04/21 04:11:25;;;;;;;3.50;1.67;;;2.60;99.90;;;;;;5305336;26;20348;-83
2024/04/21 04:14:11;;;;;;;3.97;1.60;;;2.50;99.90;;;;;;5322147;26;20053;-83
2024/04/21 04:16:56;;;;;;;5.45;1.75;;;2.50;99.90;;;;;;5372004;26;20019;-82
2024/04/21 04:19:43;;;;;;;5.07;1.58;;;2.40;99.90;;;;;;5336322;26;20827;-82
2024/04/21 04:22:29;;;;;;;3.90;1.70;;;2.40;99.90;;;;;;5307919;26;20092;-82
2024/04/21 04:25:15;;;;;;;4.00;1.58;;;2.40;99.90;;;;;;5314729;26;20005;-82
2024/04/21 04:28:01;;;;;;;4.72;2.03;;;2.30;99.90;;;;;;5309765;26;20001;-82
2024/04/21 04:30:49;;;;;;;6.85;2.35;;;2.30;99.90;;;;;;5354047;26;20004;-82
2024/04/21 04:33:35;;;;;;;5.30;2.03;;;2.30;99.90;;;;;;5331795;26;20012;-82
2024/04/21 04:36:01;;;;;;;5.53;1.98;;;2.30;99.90;;;;;;5335085;26;20001;-83
2024/04/21 04:38:27;;;;;;;4.13;2.22;;;2.30;99.90;;;;;;5335506;26;20005;-82
2024/04/21 04:41:13;;;;;;;4.93;1.88;;;2.20;99.90;;;;;;5335449;26;20077;-82
2024/04/21 04:43:59;;;;;;;6.68;2.22;;;2.20;99.90;;;;;;5335977;26;20013;-82
2024/04/21 04:46:44;;;;;;;4.03;2.45;;;2.20;99.90;;;;;;5334082;26;20344;-82
2024/04/21 04:49:10;;;;;;;5.65;2.40;;;2.20;99.90;;;;;;5379890;26;20847;-82
2024/04/21 04:51:57;;;;;;;5.15;2.33;;;2.10;99.90;;;;;;5327355;26;20005;-82
2024/04/21 04:54:43;;;;;;;10.43;3.08;;;2.10;99.90;;;;;;5309075;26;20004;-82
2024/04/21 04:57:09;;;;;;;8.45;3.33;;;2.10;99.90;;;;;;5336373;26;20086;-82
2024/04/21 04:59:35;;;;;;;5.85;2.85;;;2.20;99.90;;;;;;5331632;26;20344;-82
2024/04/21 05:02:01;;;;;;;8.02;3.35;;;2.10;99.90;;;;;;5333284;26;20336;-82
2024/04/21 05:04:27;;;;;;;6.60;3.05;;;2.10;99.90;;;;;;5331750;26;20008;-82
2024/04/21 05:06:53;;;;;;;8.43;3.10;;;2.10;99.90;;;;;;5330553;26;20001;-82
2024/04/21 05:09:19;;;;;;;8.35;3.00;;;2.10;99.90;;;;;;5332680;26;20021;-81
2024/04/21 05:11:45;;;;;;;8.60;3.35;;;2.20;99.90;;;;;;5330865;26;20330;-82
2024/04/21 05:14:11;;;;;;;9.57;3.50;;;2.10;99.90;;;;;;5330238;26;20414;-82
2024/04/21 05:16:37;;;;;;;8.38;3.88;;;2.20;99.90;;;;;;5332160;26;20005;-82
2024/04/21 05:19:11;;;;;;;5.97;3.30;;;2.10;99.90;;;;;;5336727;26;20020;-81
2024/04/21 05:21:38;;;;;;;7.88;3.47;;;2.10;99.90;;;;;;5332310;26;20203;-82
2024/04/21 05:24:04;;;;;;;10.02;3.38;;;2.20;99.90;;;;;;5329574;26;20092;-81
2024/04/21 05:26:30;;;;;;;8.10;3.22;;;2.30;99.90;;;;;;5301952;26;20009;-81
2024/04/21 05:28:56;;;;;;;5.63;3.22;;;2.40;99.90;;;;;;5336451;26;20016;-81
2024/04/21 05:31:22;;;;;;;8.63;3.40;;;2.40;99.90;;;;;;5330931;26;20651;-81
2024/04/21 05:33:48;;;;;;;8.88;3.70;;;2.50;99.90;;;;;;5337770;26;20065;-80
2024/04/21 05:36:14;;;;;;;8.85;3.25;;;2.50;99.90;;;;;;5332170;26;20016;-82
2024/04/21 05:38:40;;;;;;;10.15;3.45;;;2.50;99.90;;;;;;5337675;26;20001;-82
2024/04/21 05:41:06;;;;;;;8.98;3.10;;;2.60;99.90;;;;;;5329622;26;20017;-82
2024/04/21 05:43:31;;;;;;;7.88;3.28;;;2.60;99.90;;;;;;5330817;26;20384;-82
2024/04/21 05:46:04;;;;;;;11.25;3.10;;;2.70;99.90;;;;;;5331613;26;20024;-82
2024/04/21 05:48:30;;;;;;;9.15;3.00;;;2.70;99.90;;;;;;5327595;26;20001;-82
2024/04/21 05:50:56;;;;;;;8.40;2.90;;;2.80;99.90;;;;;;5332891;26;20443;-81
2024/04/21 05:53:22;;;;;;;10.88;3.42;;;2.80;99.90;;;;;;5364201;26;20036;-81
2024/04/21 05:55:49;;;;;;;9.13;3.58;;;2.90;99.90;;;;;;5331419;26;20000;-82
2024/04/21 05:58:15;;;;;;;10.65;3.38;;;3.00;99.90;;;;;;5335945;26;20005;-82
2024/04/21 06:00:41;;;;;;;14.38;4.35;;;3.00;99.90;;;;;;5333022;26;20517;-82
2024/04/21 06:03:07;;;;;;;10.70;3.80;;;3.10;99.90;;;;;;5335330;26;20012;-82
2024/04/21 06:05:33;;;;;;;10.35;3.95;;;3.10;99.90;;;;;;5323671;26;20001;-82
2024/04/21 06:07:59;;;;;;;9.10;3.63;;;3.20;99.90;;;;;;5335730;26;20000;-82
2024/04/21 06:10:24;;;;;;;10.00;3.50;;;3.20;99.90;;;;;;5332675;26;20019;-82
2024/04/21 06:12:53;;;;;;;13.10;3.95;;;3.30;99.90;;;;;;5332892;26;20024;-83
2024/04/21 06:15:20;;;;;;;10.77;3.88;;;3.40;99.90;;;;;;5334388;26;20019;-83
2024/04/21 06:17:49;;;;;;;14.15;3.92;;;3.50;99.90;;;;;;5327683;26;20083;-82
2024/04/21 06:20:15;;;;;;;10.55;3.70;;;3.50;99.90;;;;;;5336499;26;20019;-83
2024/04/21 06:22:41;;;;;;;14.23;4.07;;;3.60;99.90;;;;;;5329035;26;21440;-82
2024/04/21 06:25:08;;;;;;;12.82;3.75;;;3.70;99.90;;;;;;5334875;26;19997;-83
2024/04/21 06:27:34;;;;;;;13.77;4.13;;;3.70;99.90;;;;;;5327463;26;20577;-82
2024/04/21 06:30:01;;;;;;;13.00;3.58;;;3.80;99.90;;;;;;5333900;26;20005;-83
2024/04/21 06:32:27;;;;;;;10.30;3.35;;;3.90;99.90;;;;;;5331114;26;20367;-82
2024/04/21 06:34:53;;;;;;;12.75;3.75;;;3.90;99.90;;;;;;5331672;26;20107;-82
2024/04/21 06:37:19;;;;;;;8.13;3.25;;;4.00;99.90;;;;;;5331948;26;20024;-82
2024/04/21 06:39:45;;;;;;;10.15;3.10;;;4.10;99.90;;;;;;5332195;26;20009;-83
2024/04/21 06:42:11;;;;;;;8.57;3.33;;;4.30;99.90;;;;;;5327225;26;20422;-83
2024/04/21 06:44:38;;;;;;;8.93;3.40;;;4.30;99.90;;;;;;5335918;26;20341;-83
2024/04/21 06:47:05;;;;;;;8.48;3.47;;;4.40;99.90;;;;;;5333210;26;20017;-83
2024/04/21 06:49:36;;;;;;;10.85;3.67;;;4.50;99.90;;;;;;5333074;26;20095;-83
2024/04/21 06:52:05;;;;;;;9.00;3.45;;;4.60;99.90;;;;;;5331904;26;20505;-82
2024/04/21 06:54:31;;;;;;;10.85;3.65;;;4.60;99.90;;;;;;5335099;26;20463;-82
2024/04/21 06:56:58;;;;;;;10.10;3.88;;;4.70;99.90;;;;;;5328803;26;20021;-82
2024/04/21 06:59:25;;;;;;;11.10;3.83;;;4.70;99.90;;;;;;5331410;26;20009;-82
2024/04/21 07:01:51;;;;;;;9.20;3.13;;;4.70;99.90;;;;;;5288648;26;1201893;-82
2024/04/21 07:04:18;;;;;;;10.27;3.53;;;4.70;99.90;;;;;;5328710;26;20082;-83
2024/04/21 07:06:44;;;;;;;9.90;3.70;;;4.80;99.90;;;;;;5330392;26;20407;-81
2024/04/21 07:09:10;;;;;;;10.68;4.53;;;4.80;99.90;;;;;;5337677;26;20023;-81
2024/04/21 07:11:36;;;;;;;8.90;4.35;;;4.90;99.90;;;;;;5335758;26;20508;-81
2024/04/21 07:14:02;;;;;;;12.00;4.18;;;5.00;99.90;;;;;;5338605;26;20004;-80
2024/04/21 07:16:28;;;;;;;15.18;5.55;;;5.00;99.90;;;;;;5330893;26;20044;-81
2024/04/21 07:18:54;;;;;;;9.52;4.97;;;5.10;99.90;;;;;;5340477;26;20009;-82
2024/04/21 07:21:20;;;;;;;10.82;4.90;;;5.30;99.90;;;;;;5336358;26;20091;-81
2024/04/21 07:23:46;;;;;;;9.38;4.40;;;5.40;99.90;;;;;;5395069;26;20459;-81
2024/04/21 07:26:12;;;;;;;8.40;4.75;;;5.50;99.90;;;;;;5334698;26;20028;-82
2024/04/21 07:28:38;;;;;;;7.13;4.20;;;5.50;99.90;;;;;;5341132;26;20040;-81
2024/04/21 07:31:05;;;;;;;9.57;5.10;;;5.50;99.90;;;;;;5330993;26;20008;-80
2024/04/21 07:33:41;;;;;;;10.55;5.60;;;5.60;99.90;;;;;;5365174;26;20436;-80
2024/04/21 07:36:07;;;;;;;9.10;4.78;;;5.70;99.90;;;;;;5331073;26;20017;-80
2024/04/21 07:38:33;;;;;;;10.63;4.75;;;5.80;99.90;;;;;;5336627;26;21133;-81
2024/04/21 07:40:59;;;;;;;9.60;4.55;;;5.90;99.90;;;;;;5337578;26;20009;-81
2024/04/21 07:43:26;;;;;;;9.05;5.00;;;6.00;99.90;;;;;;5334727;26;20576;-80
2024/04/21 07:45:52;;;;;;;8.95;4.82;;;6.20;99.90;;;;;;5392164;26;20024;-80
2024/04/21 07:48:20;;;;;;;8.18;4.82;;;6.30;99.90;;;;;;5339745;26;20033;-80
2024/04/21 07:50:46;;;;;;;7.57;4.93;;;6.40;99.90;;;;;;5330728;26;20043;-81
2024/04/21 07:53:12;;;;;;;7.80;4.57;;;6.60;99.90;;;;;;5302032;26;20001;-80
2024/04/21 07:55:39;;;;;;;8.32;4.40;;;6.80;99.90;;;;;;5336847;26;20086;-81
2024/04/21 07:58:05;;;;;;;5.80;4.00;;;6.90;99.90;;;;;;5333033;26;20060;-82
2024/04/21 08:00:31;;;;;;;8.82;4.22;;;7.00;99.90;;;;;;5332831;26;20089;-81
2024/04/21 08:02:57;;;;;;;5.93;3.78;;;6.90;99.90;;;;;;5331331;26;20363;-81
2024/04/21 08:05:23;;;;;;;9.10;3.80;;;6.90;99.90;;;;;;5330664;26;20001;-81
2024/04/21 08:07:49;;;;;;;6.35;3.67;;;6.80;99.90;;;;;;5335738;26;20377;-81
2024/04/21 08:10:15;;;;;;;5.63;3.45;;;6.80;99.90;;;;;;5333533;26;20001;-81
2024/04/21 08:12:41;;;;;;;6.07;3.25;;;6.90;99.90;;;;;;5335648;26;20017;-80
2024/04/21 08:15:07;;;;;;;8.00;3.03;;;6.90;99.90;;;;;;5333532;26;20090;-81
2024/04/21 08:17:33;;;;;;;5.13;3.15;;;7.00;99.90;;;;;;5328188;26;20001;-81
2024/04/21 08:19:59;;;;;;;4.85;3.25;;;7.00;99.90;;;;;;5332719;26;20009;-80
2024/04/21 08:22:25;;;;;;;3.67;2.78;;;7.10;99.90;;;;;;5392770;26;20083;-81
2024/04/21 08:24:51;;;;;;;4.93;2.90;;;7.30;99.90;;;;;;5332165;26;20041;-81
2024/04/21 08:27:17;;;;;;;4.60;2.97;;;7.50;99.90;;;;;;5333239;26;20009;-81
2024/04/21 08:29:43;;;;;;;4.40;3.13;;;7.50;99.90;;;;;;5335844;26;20001;-81
2024/04/21 08:32:10;;;;;;;5.68;3.10;;;7.50;99.90;;;;;;5332913;26;20483;-81
2024/04/21 08:34:36;;;;;;;5.32;2.85;;;7.60;99.90;;;;;;5333692;26;20090;-82
2024/04/21 08:37:03;;;;;;;4.22;2.78;;;7.70;99.90;;;;;;5331503;26;20000;-81
2024/04/21 08:39:34;;;;;;;6.43;2.80;;;7.70;99.90;;;;;;5336093;26;20483;-84
2024/04/21 08:42:01;;;;;;;4.70;2.78;;;7.80;99.90;;;;;;5327543;26;21570;-82
2024/04/21 08:44:29;;;;;;;3.95;2.67;;;7.80;99.90;;;;;;5336309;26;20418;-82
2024/04/21 08:46:57;;;;;;;4.35;3.00;;;7.90;99.90;;;;;;5331738;26;20009;-83
2024/04/21 08:49:24;;;;;;;4.38;2.53;;;7.90;99.90;;;;;;5335254;26;20009;-82
2024/04/21 08:51:51;;;;;;;3.78;2.45;;;8.00;99.90;;;;;;5300858;26;20012;-83
2024/04/21 08:54:17;;;;;;;4.85;3.15;;;8.20;99.90;;;;;;5337077;26;20064;-81
2024/04/21 08:56:50;;;;;;;5.63;2.75;;;8.40;99.90;;;;;;5330503;26;20075;-81
2024/04/21 08:59:22;;;;;;;5.05;2.95;;;8.70;99.90;;;;;;5331473;26;20015;-82
2024/04/21 09:01:52;;;;;;;4.18;3.17;;;8.80;99.90;;;;;;5334516;26;20001;-81
2024/04/21 09:04:22;;;;;;;5.30;2.67;;;8.80;99.90;;;;;;5334666;26;20545;-81
2024/04/21 09:06:54;;;;;;;4.05;2.72;;;8.90;99.90;;;;;;5336587;26;20343;-82
2024/04/21 09:09:27;;;;;;;3.58;2.40;;;9.10;99.90;;;;;;5392271;26;20029;-83
2024/04/21 09:11:55;;;;;;;5.07;2.90;;;9.10;99.90;;;;;;5331868;26;20010;-83
2024/04/21 09:14:25;;;;;;;5.13;3.13;;;9.20;99.90;;;;;;5335458;26;20033;-84
2024/04/21 09:16:54;;;;;;;4.67;3.30;;;9.00;99.90;;;;;;5336474;26;20079;-83
2024/04/21 09:19:23;;;;;;;5.03;3.13;;;9.00;99.90;;;;;;5333675;26;20382;-83
2024/04/21 09:21:49;;;;;;;6.43;3.33;;;8.90;99.90;;;;;;5334625;26;20015;-83
2024/04/21 09:24:20;;;;;;;3.42;2.70;;;9.00;99.90;;;;;;5335693;26;20024;-82
2024/04/21 09:26:52;;;;;;;4.17;2.93;;;9.10;99.90;;;;;;5335575;26;20008;-81
2024/04/21 09:29:29;;;;;;;4.22;2.95;;;9.20;99.90;;;;;;5331773;26;20254;-83
2024/04/21 09:32:01;;;;;;;3.38;2.47;;;9.50;99.90;;;;;;5364604;26;20009;-84
2024/04/21 09:34:30;;;;;;;5.03;2.83;;;9.50;99.90;;;;;;5386585;26;20082;-83
2024/04/21 09:36:59;;;;;;;4.05;2.75;;;9.40;99.90;;;;;;5333850;26;20435;-84
2024/04/21 09:39:29;;;;;;;3.88;2.92;;;9.30;99.90;;;;;;5328989;26;20064;-84
2024/04/21 09:41:56;;;;;;;3.72;2.47;;;9.10;99.90;;;;;;5329207;26;20008;-84
2024/04/21 09:44:27;;;;;;;5.07;2.58;;;9.10;99.90;;;;;;5337322;26;20017;-83
2024/04/21 09:46:54;;;;;;;3.63;2.50;;;9.10;99.90;;;;;;5331037;26;20044;-84
2024/04/21 09:49:34;;;;;;;4.82;2.80;;;9.10;99.90;;;;;;5334398;26;20005;-82
2024/04/21 09:52:04;;;;;;;4.53;2.78;;;9.40;99.90;;;;;;5333554;26;20411;-84
2024/04/21 09:54:34;;;;;;;3.38;2.22;;;9.50;99.90;;;;;;5334835;26;20016;-83
2024/04/21 09:57:12;;;;;;;2.85;2.25;;;9.70;99.90;;;;;;5330151;26;20017;-82
2024/04/21 09:59:38;;;;;;;5.72;2.67;;;9.80;99.90;;;;;;5330792;26;20019;-83
2024/04/21 10:02:15;;;;;;;3.35;2.25;;;9.70;99.90;;;;;;5357914;26;20116;-83
2024/04/21 10:05:08;;;;;;;3.25;2.30;;;9.80;99.90;;;;;;5337209;26;20017;-83
2024/04/21 10:07:54;;;;;;;3.20;2.20;;;10.10;99.90;;;;;;5361174;26;20433;-82
2024/04/21 10:11:00;;;;;;;3.17;2.40;;;10.30;99.90;;;;;;5329691;26;20078;-84
2024/04/21 10:13:58;;;;;;;3.88;2.42;;;10.30;99.90;;;;;;5325682;26;20056;-84
2024/04/21 10:20:09;;;;;;;3.92;2.05;;;10.20;99.90;;;;;;5332347;26;20052;-82
2024/04/21 10:23:11;;;;;;;3.28;2.00;;;10.30;99.90;;;;;;5334349;26;20463;-83
2024/04/21 10:25:51;;;;;;;2.83;2.05;;;10.20;99.90;;;;;;5334095;26;20090;-83
2024/04/21 10:28:28;;;;;;;3.30;1.95;;;10.00;99.90;;;;;;5331103;26;20008;-83
2024/04/21 10:31:07;;;;;;;2.67;1.63;;;9.90;99.90;;;;;;5331367;26;20009;-85
2024/04/21 10:33:35;;;;;;;3.28;1.90;;;9.80;99.90;;;;;;5360264;26;20031;-83
2024/04/21 10:36:02;;;;;;;3.08;1.60;;;9.90;99.90;;;;;;5334480;26;20009;-84
2024/04/21 10:38:28;;;;;;;3.08;1.75;;;9.90;99.90;;;;;;5332569;26;20359;-83
2024/04/21 10:40:59;;;;;;;2.75;1.52;;;10.00;99.90;;;;;;5330394;26;20013;-84
2024/04/21 10:43:43;;;;;;;6.03;2.63;;;10.00;99.90;;;;;;5333375;26;20358;-84
2024/04/21 10:46:27;;;;;;;3.35;1.45;;;10.00;99.90;;;;;;5335700;26;20009;-86
2024/04/21 10:49:08;;;;;;;3.28;2.10;;;9.80;99.90;;;;;;5331237;26;20346;-84
2024/04/21 10:51:44;;;;;;;3.90;1.83;;;9.70;99.90;;;;;;5332489;26;20013;-82
2024/04/21 10:54:27;;;;;;;2.45;1.85;;;9.60;99.90;;;;;;5335639;26;20047;-83
2024/04/21 10:56:56;;;;;;;3.53;1.95;;;9.60;99.90;;;;;;5330294;26;20019;-84
2024/04/21 10:59:22;;;;;;;3.45;2.10;;;10.00;99.90;;;;;;5335676;26;20086;-86
2024/04/21 11:01:51;;;;;;;3.45;1.50;;;10.30;99.90;;;;;;5338584;26;20479;-83
2024/04/21 11:04:19;;;;;;;2.70;1.88;;;10.60;99.90;;;;;;5330112;26;20017;-84
2024/04/21 11:06:46;;;;;;;3.42;1.95;;;10.90;99.90;;;;;;5335717;26;20447;-88
2024/04/21 11:09:19;;;;;;;3.45;1.95;;;11.10;99.90;;;;;;5337391;26;20756;-81
2024/04/21 11:11:46;;;;;;;2.20;1.70;;;11.00;99.90;;;;;;5333020;26;20359;-83
2024/04/21 11:14:12;;;;;;;3.33;1.70;;;10.80;99.90;;;;;;5334873;26;20016;-85
2024/04/21 11:16:38;;;;;;;3.20;1.98;;;10.70;99.90;;;;;;5339214;26;20039;-83
2024/04/21 11:19:05;;;;;;;2.97;2.10;;;10.60;99.90;;;;;;5335875;26;20017;-83
2024/04/21 11:21:32;;;;;;;3.75;1.85;;;10.50;99.90;;;;;;5392384;26;20361;-83
2024/04/21 11:23:58;;;;;;;2.42;1.80;;;10.60;99.90;;;;;;5334367;26;20474;-82
2024/04/21 11:26:26;;;;;;;2.60;2.03;;;10.70;99.90;;;;;;5335781;26;20041;-82
2024/04/21 11:28:55;;;;;;;3.42;2.60;;;10.70;99.90;;;;;;5366352;26;20028;-85
2024/04/21 11:31:23;;;;;;;3.33;2.20;;;10.80;99.90;;;;;;5332958;26;20001;-83
2024/04/21 11:33:49;;;;;;;3.53;2.10;;;11.10;99.90;;;;;;5331568;26;20240;-84
2024/04/21 11:36:22;;;;;;;3.13;1.90;;;11.30;99.90;;;;;;5333173;26;20005;-84
2024/04/21 11:38:51;;;;;;;2.67;1.60;;;11.50;99.90;;;;;;5332186;26;20012;-83
2024/04/21 11:41:39;;;;;;;3.72;1.60;;;11.40;99.90;;;;;;5336103;26;19997;-82
2024/04/21 11:44:15;;;;;;;3.40;2.20;;;11.40;99.90;;;;;;5334114;26;20424;-81
2024/04/21 11:46:48;;;;;;;4.65;2.22;;;11.30;99.90;;;;;;5333938;26;20012;-82
2024/04/21 11:49:29;;;;;;;3.25;2.30;;;11.00;99.90;;;;;;5336819;26;20044;-83
2024/04/21 11:51:57;;;;;;;3.25;2.15;;;10.70;99.90;;;;;;5337440;26;20016;-83
2024/04/21 11:54:28;;;;;;;3.42;1.90;;;10.60;99.90;;;;;;5341290;26;20078;-83
2024/04/21 11:56:56;;;;;;;2.80;1.90;;;10.40;99.90;;;;;;5331469;26;20474;-83
2024/04/21 11:59:24;;;;;;;3.40;1.92;;;10.30;99.90;;;;;;5335471;26;20005;-83
2024/04/21 12:01:58;;;;;;;4.07;2.15;;;10.20;99.90;;;;;;5330584;26;20001;-83
2024/04/21 12:04:24;;;;;;;3.83;2.33;;;10.30;99.90;;;;;;5336674;26;20016;-82
2024/04/21 12:06:50;;;;;;;2.50;1.70;;;10.40;99.90;;;;;;5325664;26;20254;-82
2024/04/21 12:09:22;;;;;;;3.35;1.77;;;10.40;99.90;;;;;;5338932;26;20019;-83
2024/04/21 12:11:48;;;;;;;2.95;1.52;;;10.50;99.90;;;;;;5337132;26;20009;-83
2024/04/21 12:14:32;;;;;;;3.40;2.10;;;10.40;99.90;;;;;;5302314;26;20004;-82
2024/04/21 12:17:11;;;;;;;3.53;2.33;;;10.30;99.90;;;;;;5364226;26;20004;-83
2024/04/21 12:20:19;;;;;;;3.72;2.25;;;10.00;99.90;;;;;;5363358;26;20008;-83
2024/04/21 12:22:58;;;;;;;3.85;2.40;;;9.60;99.90;;;;;;5320294;26;20020;-81
2024/04/21 12:25:29;;;;;;;4.03;2.58;;;9.30;99.90;;;;;;5340647;26;20012;-81
2024/04/21 12:28:14;;;;;;;3.92;2.40;;;9.10;99.90;;;;;;5262467;27;20002;-83
2024/04/21 12:31:49;;;;;;;;;;;;;;;;;;;;;
2024/04/21 12:38:43;;;;;;;4.68;2.28;;;8.60;99.90;;;;;;5158880;27;20012;-84
2024/04/21 12:41:21;;;;;;;3.70;2.67;;;8.70;99.90;;;;;;5162488;27;20008;-82
2024/04/21 12:44:04;;;;;;;3.88;2.17;;;8.80;99.90;;;;;;5161546;27;20866;-84
2024/04/21 12:46:53;;;;;;;3.45;2.05;;;9.10;99.90;;;;;;5134608;27;20016;-82
2024/04/21 12:49:25;;;;;;;3.38;2.30;;;9.60;99.90;;;;;;5136793;27;20012;-83
2024/04/21 12:51:51;;;;;;;3.88;2.15;;;9.80;99.90;;;;;;5187711;27;20013;-83
2024/04/21 12:54:22;;;;;;;5.53;2.70;;;9.90;99.90;;;;;;5266555;27;20034;-83
2024/04/21 12:57:11;;;;;;;5.32;3.90;;;10.10;99.90;;;;;;5263496;27;20077;-82
2024/04/21 13:00:13;;;;;;;4.43;3.15;;;10.20;99.90;;;;;;5317711;26;20004;-83
2024/04/21 13:02:40;;;;;;;4.20;2.25;;;10.10;99.90;;;;;;5363125;26;20085;-81
2024/04/21 13:05:06;;;;;;;3.33;2.33;;;10.00;99.90;;;;;;5332174;26;20005;-81
2024/04/21 13:07:32;;;;;;;34.38;23.05;;;10.00;99.90;;;;;;5390548;26;20005;-82
2024/04/21 13:10:02;;;;;;;7.22;5.00;;;10.20;99.90;;;;;;5336366;26;20009;-83
2024/04/21 13:12:35;;;;;;;3.58;2.47;;;10.40;99.90;;;;;;5336058;26;20082;-83
2024/04/21 13:15:01;;;;;;;4.22;2.03;;;10.80;99.90;;;;;;5329808;26;20012;-83
2024/04/21 13:17:44;;;;;;;3.03;2.28;;;11.00;99.90;;;;;;5338900;26;20036;-82
2024/04/21 13:20:24;;;;;;;4.10;2.40;;;11.20;99.90;;;;;;5332522;26;20036;-85
2024/04/21 13:22:50;;;;;;;3.55;2.35;;;11.40;99.90;;;;;;5335421;26;20008;-80
2024/04/21 13:26:16;;;;;;;3.58;2.50;;;11.10;99.90;;;;;;5334185;26;20009;-80
2024/04/21 13:33:27;;;;;;;3.75;2.75;;;9.80;99.90;;;;;;5331739;26;20013;-82